sensor_id;sensor_type;location;lat;lon;timestamp;P1;durP1;ratioP1;P2;durP2;ratioP2
79369;SDS011;68835;53.096;17.932;2023-06-22T00:02:59;20.20;;;11.50;;
79369;SDS011;68835;53.096;17.932;2023-06-22T00:05:26;17.20;;;11.20;;
79369;SDS011;68835;53.096;17.932;2023-06-22T00:07:54;16.70;;;11.20;;
79369;SDS011;68835;53.096;17.932;2023-06-22T00:12:48;20.00;;;11.80;;
79369;SDS011;68835;53.096;17.932;2023-06-22T00:17:42;19.40;;;11.70;;
79369;SDS011;68835;53.096;17.932;2023-06-22T00:22:37;19.60;;;12.20;;
79369;SDS011;68835;53.096;17.932;2023-06-22T00:25:06;18.80;;;12.20;;
79369;SDS011;68835;53.096;17.932;2023-06-22T00:27:34;18.70;;;12.30;;
79369;SDS011;68835;53.096;17.932;2023-06-22T00:30:02;23.60;;;13.20;;
79369;SDS011;68835;53.096;17.932;2023-06-22T00:32:30;20.70;;;12.30;;
79369;SDS011;68835;53.096;17.932;2023-06-22T00:34:57;18.40;;;11.50;;
79369;SDS011;68835;53.096;17.932;2023-06-22T00:37:25;18.50;;;11.70;;
79369;SDS011;68835;53.096;17.932;2023-06-22T00:39:53;19.10;;;12.60;;
79369;SDS011;68835;53.096;17.932;2023-06-22T00:42:21;19.50;;;13.80;;
79369;SDS011;68835;53.096;17.932;2023-06-22T00:44:48;22.40;;;13.70;;
79369;SDS011;68835;53.096;17.932;2023-06-22T00:47:16;19.00;;;12.80;;
79369;SDS011;68835;53.096;17.932;2023-06-22T00:49:44;19.20;;;12.10;;
79369;SDS011;68835;53.096;17.932;2023-06-22T00:52:15;20.10;;;13.00;;
79369;SDS011;68835;53.096;17.932;2023-06-22T00:54:47;21.30;;;12.50;;
79369;SDS011;68835;53.096;17.932;2023-06-22T00:57:17;18.60;;;10.60;;
79369;SDS011;68835;53.096;17.932;2023-06-22T00:59:45;18.50;;;12.20;;
79369;SDS011;68835;53.096;17.932;2023-06-22T01:02:15;20.40;;;13.20;;
79369;SDS011;68835;53.096;17.932;2023-06-22T01:04:42;21.30;;;13.00;;
79369;SDS011;68835;53.096;17.932;2023-06-22T01:07:31;19.40;;;11.70;;
79369;SDS011;68835;53.096;17.932;2023-06-22T01:10:10;18.00;;;11.10;;
79369;SDS011;68835;53.096;17.932;2023-06-22T01:12:46;15.60;;;11.10;;
79369;SDS011;68835;53.096;17.932;2023-06-22T01:15:24;12.60;;;7.70;;
79369;SDS011;68835;53.096;17.932;2023-06-22T01:17:56;15.80;;;9.70;;
79369;SDS011;68835;53.096;17.932;2023-06-22T01:20:25;13.60;;;8.80;;
79369;SDS011;68835;53.096;17.932;2023-06-22T01:23:11;19.50;;;11.00;;
79369;SDS011;68835;53.096;17.932;2023-06-22T01:28:47;13.50;;;9.10;;
79369;SDS011;68835;53.096;17.932;2023-06-22T01:31:18;13.50;;;9.10;;
79369;SDS011;68835;53.096;17.932;2023-06-22T01:33:50;18.40;;;9.70;;
79369;SDS011;68835;53.096;17.932;2023-06-22T01:36:20;12.80;;;8.30;;
79369;SDS011;68835;53.096;17.932;2023-06-22T01:38:49;12.80;;;8.30;;
79369;SDS011;68835;53.096;17.932;2023-06-22T01:41:19;14.70;;;8.70;;
79369;SDS011;68835;53.096;17.932;2023-06-22T01:43:48;12.00;;;8.40;;
79369;SDS011;68835;53.096;17.932;2023-06-22T01:46:16;20.90;;;8.90;;
79369;SDS011;68835;53.096;17.932;2023-06-22T01:48:46;12.70;;;8.50;;
79369;SDS011;68835;53.096;17.932;2023-06-22T01:51:14;11.40;;;8.00;;
79369;SDS011;68835;53.096;17.932;2023-06-22T01:53:42;16.30;;;8.00;;
79369;SDS011;68835;53.096;17.932;2023-06-22T01:58:37;14.30;;;8.10;;
79369;SDS011;68835;53.096;17.932;2023-06-22T02:01:11;11.90;;;8.40;;
79369;SDS011;68835;53.096;17.932;2023-06-22T02:03:44;13.10;;;8.20;;
79369;SDS011;68835;53.096;17.932;2023-06-22T02:06:25;14.10;;;8.40;;
79369;SDS011;68835;53.096;17.932;2023-06-22T02:08:59;14.10;;;9.20;;
79369;SDS011;68835;53.096;17.932;2023-06-22T02:11:28;17.80;;;7.80;;
79369;SDS011;68835;53.096;17.932;2023-06-22T02:13:57;17.20;;;9.30;;
79369;SDS011;68835;53.096;17.932;2023-06-22T02:16:25;15.30;;;8.80;;
79369;SDS011;68835;53.096;17.932;2023-06-22T02:18:56;10.70;;;7.20;;
79369;SDS011;68835;53.096;17.932;2023-06-22T02:21:29;10.20;;;7.60;;
79369;SDS011;68835;53.096;17.932;2023-06-22T02:23:58;10.30;;;6.80;;
79369;SDS011;68835;53.096;17.932;2023-06-22T02:26:25;10.90;;;7.50;;
79369;SDS011;68835;53.096;17.932;2023-06-22T02:28:54;11.70;;;7.30;;
79369;SDS011;68835;53.096;17.932;2023-06-22T02:33:48;8.80;;;6.00;;
79369;SDS011;68835;53.096;17.932;2023-06-22T02:36:19;10.70;;;6.50;;
79369;SDS011;68835;53.096;17.932;2023-06-22T02:38:49;12.00;;;8.00;;
79369;SDS011;68835;53.096;17.932;2023-06-22T02:41:17;6.00;;;4.30;;
79369;SDS011;68835;53.096;17.932;2023-06-22T02:43:45;7.10;;;5.20;;
79369;SDS011;68835;53.096;17.932;2023-06-22T02:46:13;10.30;;;7.00;;
79369;SDS011;68835;53.096;17.932;2023-06-22T02:48:41;13.40;;;7.40;;
79369;SDS011;68835;53.096;17.932;2023-06-22T02:51:09;11.50;;;7.00;;
79369;SDS011;68835;53.096;17.932;2023-06-22T02:53:36;9.10;;;6.00;;
79369;SDS011;68835;53.096;17.932;2023-06-22T02:56:04;16.00;;;6.80;;
79369;SDS011;68835;53.096;17.932;2023-06-22T02:58:37;6.70;;;5.10;;
79369;SDS011;68835;53.096;17.932;2023-06-22T03:01:08;9.30;;;6.10;;
79369;SDS011;68835;53.096;17.932;2023-06-22T03:03:37;7.10;;;4.10;;
79369;SDS011;68835;53.096;17.932;2023-06-22T03:08:31;11.90;;;6.10;;
79369;SDS011;68835;53.096;17.932;2023-06-22T03:10:58;6.80;;;4.00;;
79369;SDS011;68835;53.096;17.932;2023-06-22T03:13:26;7.60;;;4.50;;
79369;SDS011;68835;53.096;17.932;2023-06-22T03:15:54;7.70;;;4.40;;
79369;SDS011;68835;53.096;17.932;2023-06-22T03:18:21;7.50;;;4.10;;
79369;SDS011;68835;53.096;17.932;2023-06-22T03:20:49;11.60;;;7.00;;
79369;SDS011;68835;53.096;17.932;2023-06-22T03:23:16;7.10;;;4.70;;
79369;SDS011;68835;53.096;17.932;2023-06-22T03:25:44;7.10;;;3.60;;
79369;SDS011;68835;53.096;17.932;2023-06-22T03:28:11;9.10;;;5.50;;
79369;SDS011;68835;53.096;17.932;2023-06-22T03:30:39;7.40;;;4.20;;
79369;SDS011;68835;53.096;17.932;2023-06-22T03:33:06;8.20;;;3.30;;
79369;SDS011;68835;53.096;17.932;2023-06-22T03:35:34;8.20;;;5.20;;
79369;SDS011;68835;53.096;17.932;2023-06-22T03:38:01;7.70;;;4.50;;
79369;SDS011;68835;53.096;17.932;2023-06-22T03:40:31;6.60;;;4.50;;
79369;SDS011;68835;53.096;17.932;2023-06-22T03:42:59;3.60;;;2.40;;
79369;SDS011;68835;53.096;17.932;2023-06-22T03:47:53;8.60;;;4.70;;
79369;SDS011;68835;53.096;17.932;2023-06-22T03:50:20;6.10;;;2.70;;
79369;SDS011;68835;53.096;17.932;2023-06-22T03:52:48;5.90;;;4.40;;
79369;SDS011;68835;53.096;17.932;2023-06-22T03:55:15;8.90;;;3.90;;
79369;SDS011;68835;53.096;17.932;2023-06-22T03:57:42;13.30;;;6.10;;
79369;SDS011;68835;53.096;17.932;2023-06-22T04:02:41;10.20;;;5.10;;
79369;SDS011;68835;53.096;17.932;2023-06-22T04:05:09;7.70;;;4.40;;
79369;SDS011;68835;53.096;17.932;2023-06-22T04:07:36;5.70;;;3.70;;
79369;SDS011;68835;53.096;17.932;2023-06-22T04:12:31;10.10;;;5.80;;
79369;SDS011;68835;53.096;17.932;2023-06-22T04:14:59;3.50;;;2.30;;
79369;SDS011;68835;53.096;17.932;2023-06-22T04:17:26;7.10;;;4.50;;
79369;SDS011;68835;53.096;17.932;2023-06-22T04:22:20;9.50;;;5.10;;
79369;SDS011;68835;53.096;17.932;2023-06-22T04:24:47;8.80;;;4.50;;
79369;SDS011;68835;53.096;17.932;2023-06-22T04:27:14;9.20;;;4.80;;
79369;SDS011;68835;53.096;17.932;2023-06-22T04:32:15;13.90;;;6.20;;
79369;SDS011;68835;53.096;17.932;2023-06-22T04:34:43;8.80;;;5.90;;
79369;SDS011;68835;53.096;17.932;2023-06-22T04:37:10;9.00;;;3.30;;
79369;SDS011;68835;53.096;17.932;2023-06-22T04:39:42;8.70;;;6.10;;
79369;SDS011;68835;53.096;17.932;2023-06-22T04:42:11;4.60;;;2.80;;
79369;SDS011;68835;53.096;17.932;2023-06-22T04:44:39;6.60;;;3.90;;
79369;SDS011;68835;53.096;17.932;2023-06-22T04:47:08;5.20;;;3.30;;
79369;SDS011;68835;53.096;17.932;2023-06-22T04:49:35;6.70;;;4.10;;
79369;SDS011;68835;53.096;17.932;2023-06-22T04:52:04;6.20;;;4.50;;
79369;SDS011;68835;53.096;17.932;2023-06-22T04:54:36;9.30;;;5.90;;
79369;SDS011;68835;53.096;17.932;2023-06-22T04:57:07;6.60;;;4.40;;
79369;SDS011;68835;53.096;17.932;2023-06-22T04:59:38;11.00;;;6.00;;
79369;SDS011;68835;53.096;17.932;2023-06-22T05:02:08;4.90;;;3.20;;
79369;SDS011;68835;53.096;17.932;2023-06-22T05:04:35;5.40;;;4.00;;
79369;SDS011;68835;53.096;17.932;2023-06-22T05:07:05;5.30;;;3.30;;
79369;SDS011;68835;53.096;17.932;2023-06-22T05:09:33;5.90;;;4.00;;
79369;SDS011;68835;53.096;17.932;2023-06-22T05:12:01;9.40;;;4.70;;
79369;SDS011;68835;53.096;17.932;2023-06-22T05:14:29;5.20;;;3.30;;
79369;SDS011;68835;53.096;17.932;2023-06-22T05:16:57;9.90;;;5.60;;
79369;SDS011;68835;53.096;17.932;2023-06-22T05:19:30;8.60;;;4.80;;
79369;SDS011;68835;53.096;17.932;2023-06-22T05:22:00;11.40;;;5.70;;
79369;SDS011;68835;53.096;17.932;2023-06-22T05:24:27;8.40;;;4.70;;
79369;SDS011;68835;53.096;17.932;2023-06-22T05:29:22;9.00;;;5.00;;
79369;SDS011;68835;53.096;17.932;2023-06-22T05:31:49;9.40;;;5.50;;
79369;SDS011;68835;53.096;17.932;2023-06-22T05:34:17;5.10;;;3.10;;
79369;SDS011;68835;53.096;17.932;2023-06-22T05:36:44;12.70;;;5.50;;
79369;SDS011;68835;53.096;17.932;2023-06-22T05:41:40;7.40;;;4.00;;
79369;SDS011;68835;53.096;17.932;2023-06-22T05:44:09;7.90;;;3.70;;
79369;SDS011;68835;53.096;17.932;2023-06-22T05:46:36;5.80;;;3.90;;
79369;SDS011;68835;53.096;17.932;2023-06-22T05:49:12;14.00;;;5.20;;
79369;SDS011;68835;53.096;17.932;2023-06-22T05:51:40;6.30;;;4.30;;
79369;SDS011;68835;53.096;17.932;2023-06-22T05:54:08;4.80;;;2.20;;
79369;SDS011;68835;53.096;17.932;2023-06-22T05:56:35;6.90;;;4.20;;
79369;SDS011;68835;53.096;17.932;2023-06-22T05:59:03;8.30;;;4.50;;
79369;SDS011;68835;53.096;17.932;2023-06-22T06:01:31;8.80;;;4.20;;
79369;SDS011;68835;53.096;17.932;2023-06-22T06:04:05;8.60;;;3.70;;
79369;SDS011;68835;53.096;17.932;2023-06-22T06:06:34;3.60;;;2.50;;
79369;SDS011;68835;53.096;17.932;2023-06-22T06:09:04;6.50;;;3.40;;
79369;SDS011;68835;53.096;17.932;2023-06-22T06:11:31;5.40;;;3.60;;
79369;SDS011;68835;53.096;17.932;2023-06-22T06:13:59;4.00;;;3.10;;
79369;SDS011;68835;53.096;17.932;2023-06-22T06:16:26;7.80;;;4.10;;
79369;SDS011;68835;53.096;17.932;2023-06-22T06:18:53;4.20;;;2.60;;
79369;SDS011;68835;53.096;17.932;2023-06-22T06:21:22;4.10;;;2.70;;
79369;SDS011;68835;53.096;17.932;2023-06-22T06:23:49;6.80;;;2.70;;
79369;SDS011;68835;53.096;17.932;2023-06-22T06:26:17;3.80;;;2.70;;
79369;SDS011;68835;53.096;17.932;2023-06-22T06:28:44;4.80;;;3.30;;
79369;SDS011;68835;53.096;17.932;2023-06-22T06:31:12;3.40;;;2.00;;
79369;SDS011;68835;53.096;17.932;2023-06-22T06:33:43;3.50;;;2.30;;
79369;SDS011;68835;53.096;17.932;2023-06-22T06:36:11;7.10;;;3.10;;
79369;SDS011;68835;53.096;17.932;2023-06-22T06:38:38;5.40;;;2.00;;
79369;SDS011;68835;53.096;17.932;2023-06-22T06:41:05;3.50;;;2.30;;
79369;SDS011;68835;53.096;17.932;2023-06-22T06:43:32;5.40;;;3.30;;
79369;SDS011;68835;53.096;17.932;2023-06-22T06:45:59;6.30;;;3.50;;
79369;SDS011;68835;53.096;17.932;2023-06-22T06:48:27;5.30;;;2.90;;
79369;SDS011;68835;53.096;17.932;2023-06-22T06:50:54;5.80;;;2.80;;
79369;SDS011;68835;53.096;17.932;2023-06-22T06:53:21;8.20;;;3.10;;
79369;SDS011;68835;53.096;17.932;2023-06-22T06:55:48;5.80;;;3.10;;
79369;SDS011;68835;53.096;17.932;2023-06-22T06:58:16;3.80;;;2.70;;
79369;SDS011;68835;53.096;17.932;2023-06-22T07:00:43;5.50;;;2.50;;
79369;SDS011;68835;53.096;17.932;2023-06-22T07:03:10;3.30;;;1.90;;
79369;SDS011;68835;53.096;17.932;2023-06-22T07:05:37;4.70;;;2.70;;
79369;SDS011;68835;53.096;17.932;2023-06-22T07:08:04;5.50;;;2.80;;
79369;SDS011;68835;53.096;17.932;2023-06-22T07:10:32;5.10;;;3.00;;
79369;SDS011;68835;53.096;17.932;2023-06-22T07:12:59;3.40;;;2.50;;
79369;SDS011;68835;53.096;17.932;2023-06-22T07:15:26;4.70;;;2.30;;
79369;SDS011;68835;53.096;17.932;2023-06-22T07:17:54;5.50;;;2.60;;
79369;SDS011;68835;53.096;17.932;2023-06-22T07:20:21;3.60;;;2.20;;
79369;SDS011;68835;53.096;17.932;2023-06-22T07:22:48;3.80;;;2.20;;
79369;SDS011;68835;53.096;17.932;2023-06-22T07:25:15;2.60;;;1.70;;
79369;SDS011;68835;53.096;17.932;2023-06-22T07:27:57;3.80;;;2.00;;
79369;SDS011;68835;53.096;17.932;2023-06-22T07:30:29;2.50;;;1.80;;
79369;SDS011;68835;53.096;17.932;2023-06-22T07:32:58;5.40;;;2.70;;
79369;SDS011;68835;53.096;17.932;2023-06-22T07:35:30;5.70;;;2.70;;
79369;SDS011;68835;53.096;17.932;2023-06-22T07:37:58;6.40;;;3.10;;
79369;SDS011;68835;53.096;17.932;2023-06-22T07:40:25;5.20;;;2.80;;
79369;SDS011;68835;53.096;17.932;2023-06-22T07:42:53;4.20;;;2.80;;
79369;SDS011;68835;53.096;17.932;2023-06-22T07:45:20;3.80;;;2.20;;
79369;SDS011;68835;53.096;17.932;2023-06-22T07:47:47;3.80;;;2.40;;
79369;SDS011;68835;53.096;17.932;2023-06-22T07:50:14;5.00;;;2.80;;
79369;SDS011;68835;53.096;17.932;2023-06-22T07:52:42;7.50;;;2.90;;
79369;SDS011;68835;53.096;17.932;2023-06-22T07:55:09;7.10;;;3.00;;
79369;SDS011;68835;53.096;17.932;2023-06-22T07:57:36;2.80;;;2.00;;
79369;SDS011;68835;53.096;17.932;2023-06-22T08:00:04;4.20;;;2.80;;
79369;SDS011;68835;53.096;17.932;2023-06-22T08:02:44;4.20;;;2.80;;
79369;SDS011;68835;53.096;17.932;2023-06-22T08:05:14;4.40;;;2.80;;
79369;SDS011;68835;53.096;17.932;2023-06-22T08:07:42;4.40;;;2.40;;
79369;SDS011;68835;53.096;17.932;2023-06-22T08:10:11;2.60;;;1.80;;
79369;SDS011;68835;53.096;17.932;2023-06-22T08:12:39;3.20;;;2.10;;
79369;SDS011;68835;53.096;17.932;2023-06-22T08:15:07;3.00;;;1.60;;
79369;SDS011;68835;53.096;17.932;2023-06-22T08:17:36;2.90;;;1.90;;
79369;SDS011;68835;53.096;17.932;2023-06-22T08:20:05;4.30;;;2.30;;
79369;SDS011;68835;53.096;17.932;2023-06-22T08:22:37;2.80;;;1.90;;
79369;SDS011;68835;53.096;17.932;2023-06-22T08:25:05;4.60;;;2.90;;
79369;SDS011;68835;53.096;17.932;2023-06-22T08:27:33;3.80;;;2.70;;
79369;SDS011;68835;53.096;17.932;2023-06-22T08:30:00;3.20;;;2.10;;
79369;SDS011;68835;53.096;17.932;2023-06-22T08:32:28;4.60;;;2.70;;
79369;SDS011;68835;53.096;17.932;2023-06-22T08:34:56;4.70;;;2.30;;
79369;SDS011;68835;53.096;17.932;2023-06-22T08:37:24;3.00;;;2.10;;
79369;SDS011;68835;53.096;17.932;2023-06-22T08:39:58;6.30;;;3.10;;
79369;SDS011;68835;53.096;17.932;2023-06-22T08:42:25;3.80;;;1.60;;
79369;SDS011;68835;53.096;17.932;2023-06-22T08:44:53;4.40;;;2.60;;
79369;SDS011;68835;53.096;17.932;2023-06-22T08:47:20;3.30;;;2.20;;
79369;SDS011;68835;53.096;17.932;2023-06-22T08:49:48;6.70;;;4.30;;
79369;SDS011;68835;53.096;17.932;2023-06-22T08:52:16;3.70;;;2.60;;
79369;SDS011;68835;53.096;17.932;2023-06-22T08:54:45;5.60;;;2.90;;
79369;SDS011;68835;53.096;17.932;2023-06-22T08:57:13;4.50;;;1.90;;
79369;SDS011;68835;53.096;17.932;2023-06-22T08:59:40;6.90;;;3.50;;
79369;SDS011;68835;53.096;17.932;2023-06-22T09:02:08;5.00;;;3.10;;
79369;SDS011;68835;53.096;17.932;2023-06-22T09:04:36;4.30;;;2.50;;
79369;SDS011;68835;53.096;17.932;2023-06-22T09:07:03;4.50;;;3.30;;
79369;SDS011;68835;53.096;17.932;2023-06-22T09:09:31;4.00;;;2.90;;
79369;SDS011;68835;53.096;17.932;2023-06-22T09:11:58;4.40;;;2.90;;
79369;SDS011;68835;53.096;17.932;2023-06-22T09:14:25;4.10;;;3.00;;
79369;SDS011;68835;53.096;17.932;2023-06-22T09:16:52;3.20;;;2.10;;
79369;SDS011;68835;53.096;17.932;2023-06-22T09:19:20;5.00;;;2.30;;
79369;SDS011;68835;53.096;17.932;2023-06-22T09:21:47;5.40;;;2.80;;
79369;SDS011;68835;53.096;17.932;2023-06-22T09:24:14;4.90;;;3.20;;
79369;SDS011;68835;53.096;17.932;2023-06-22T09:26:41;4.80;;;2.00;;
79369;SDS011;68835;53.096;17.932;2023-06-22T09:29:08;2.40;;;1.90;;
79369;SDS011;68835;53.096;17.932;2023-06-22T09:31:36;3.50;;;2.30;;
79369;SDS011;68835;53.096;17.932;2023-06-22T09:34:03;5.40;;;3.50;;
79369;SDS011;68835;53.096;17.932;2023-06-22T09:36:31;3.90;;;2.70;;
79369;SDS011;68835;53.096;17.932;2023-06-22T09:38:58;3.20;;;2.00;;
79369;SDS011;68835;53.096;17.932;2023-06-22T09:41:25;3.70;;;2.60;;
79369;SDS011;68835;53.096;17.932;2023-06-22T09:43:53;4.30;;;3.30;;
79369;SDS011;68835;53.096;17.932;2023-06-22T09:46:20;6.10;;;3.40;;
79369;SDS011;68835;53.096;17.932;2023-06-22T09:48:49;3.00;;;2.30;;
79369;SDS011;68835;53.096;17.932;2023-06-22T09:51:16;3.80;;;2.80;;
79369;SDS011;68835;53.096;17.932;2023-06-22T09:53:43;3.90;;;2.20;;
79369;SDS011;68835;53.096;17.932;2023-06-22T09:56:10;3.90;;;2.00;;
79369;SDS011;68835;53.096;17.932;2023-06-22T09:58:41;5.40;;;2.70;;
79369;SDS011;68835;53.096;17.932;2023-06-22T10:01:09;7.00;;;3.20;;
79369;SDS011;68835;53.096;17.932;2023-06-22T10:03:37;7.20;;;2.70;;
79369;SDS011;68835;53.096;17.932;2023-06-22T10:06:04;4.80;;;2.60;;
79369;SDS011;68835;53.096;17.932;2023-06-22T10:08:32;3.50;;;2.40;;
79369;SDS011;68835;53.096;17.932;2023-06-22T10:10:59;4.70;;;2.20;;
79369;SDS011;68835;53.096;17.932;2023-06-22T10:13:26;3.70;;;2.50;;
79369;SDS011;68835;53.096;17.932;2023-06-22T10:15:53;2.90;;;2.30;;
79369;SDS011;68835;53.096;17.932;2023-06-22T10:18:20;4.00;;;2.70;;
79369;SDS011;68835;53.096;17.932;2023-06-22T10:20:48;4.10;;;2.60;;
79369;SDS011;68835;53.096;17.932;2023-06-22T10:23:20;4.70;;;2.60;;
79369;SDS011;68835;53.096;17.932;2023-06-22T10:25:47;3.80;;;2.30;;
79369;SDS011;68835;53.096;17.932;2023-06-22T10:28:15;4.40;;;2.30;;
79369;SDS011;68835;53.096;17.932;2023-06-22T10:30:44;5.60;;;3.00;;
79369;SDS011;68835;53.096;17.932;2023-06-22T10:33:11;4.20;;;2.80;;
79369;SDS011;68835;53.096;17.932;2023-06-22T10:35:39;3.60;;;2.60;;
79369;SDS011;68835;53.096;17.932;2023-06-22T10:38:06;4.40;;;2.60;;
79369;SDS011;68835;53.096;17.932;2023-06-22T10:40:34;3.70;;;2.80;;
79369;SDS011;68835;53.096;17.932;2023-06-22T10:43:02;4.10;;;2.40;;
79369;SDS011;68835;53.096;17.932;2023-06-22T10:45:29;4.60;;;2.30;;
79369;SDS011;68835;53.096;17.932;2023-06-22T10:47:56;7.20;;;3.10;;
79369;SDS011;68835;53.096;17.932;2023-06-22T10:50:24;3.70;;;2.20;;
79369;SDS011;68835;53.096;17.932;2023-06-22T10:52:52;5.90;;;3.10;;
79369;SDS011;68835;53.096;17.932;2023-06-22T10:55:20;3.10;;;1.80;;
79369;SDS011;68835;53.096;17.932;2023-06-22T10:57:48;3.50;;;2.20;;
79369;SDS011;68835;53.096;17.932;2023-06-22T11:00:16;5.10;;;2.80;;
79369;SDS011;68835;53.096;17.932;2023-06-22T11:02:43;3.40;;;2.00;;
79369;SDS011;68835;53.096;17.932;2023-06-22T11:05:11;5.30;;;2.80;;
79369;SDS011;68835;53.096;17.932;2023-06-22T11:07:42;5.00;;;2.50;;
79369;SDS011;68835;53.096;17.932;2023-06-22T11:10:11;2.00;;;1.70;;
79369;SDS011;68835;53.096;17.932;2023-06-22T11:12:39;3.40;;;2.10;;
79369;SDS011;68835;53.096;17.932;2023-06-22T11:15:06;2.70;;;2.00;;
79369;SDS011;68835;53.096;17.932;2023-06-22T11:17:34;5.40;;;2.60;;
79369;SDS011;68835;53.096;17.932;2023-06-22T11:20:02;5.20;;;2.70;;
79369;SDS011;68835;53.096;17.932;2023-06-22T11:22:39;4.30;;;3.60;;
79369;SDS011;68835;53.096;17.932;2023-06-22T11:25:08;2.90;;;2.10;;
79369;SDS011;68835;53.096;17.932;2023-06-22T11:27:35;3.20;;;2.20;;
79369;SDS011;68835;53.096;17.932;2023-06-22T11:30:03;4.50;;;1.90;;
79369;SDS011;68835;53.096;17.932;2023-06-22T11:32:31;2.90;;;1.90;;
79369;SDS011;68835;53.096;17.932;2023-06-22T11:34:58;5.60;;;2.10;;
79369;SDS011;68835;53.096;17.932;2023-06-22T11:37:25;3.00;;;2.10;;
79369;SDS011;68835;53.096;17.932;2023-06-22T11:39:52;4.40;;;2.50;;
79369;SDS011;68835;53.096;17.932;2023-06-22T11:42:21;4.00;;;2.40;;
79369;SDS011;68835;53.096;17.932;2023-06-22T11:44:50;4.10;;;1.80;;
79369;SDS011;68835;53.096;17.932;2023-06-22T11:47:17;4.80;;;2.40;;
79369;SDS011;68835;53.096;17.932;2023-06-22T11:49:45;3.40;;;2.00;;
79369;SDS011;68835;53.096;17.932;2023-06-22T11:52:12;2.50;;;2.10;;
79369;SDS011;68835;53.096;17.932;2023-06-22T11:54:39;4.10;;;2.60;;
79369;SDS011;68835;53.096;17.932;2023-06-22T11:57:06;3.40;;;2.10;;
79369;SDS011;68835;53.096;17.932;2023-06-22T11:59:33;4.30;;;2.20;;
79369;SDS011;68835;53.096;17.932;2023-06-22T12:02:01;4.00;;;2.60;;
79369;SDS011;68835;53.096;17.932;2023-06-22T12:04:28;3.30;;;2.10;;
79369;SDS011;68835;53.096;17.932;2023-06-22T12:06:55;3.60;;;1.90;;
79369;SDS011;68835;53.096;17.932;2023-06-22T12:09:22;4.40;;;2.60;;
79369;SDS011;68835;53.096;17.932;2023-06-22T12:11:50;4.10;;;2.80;;
79369;SDS011;68835;53.096;17.932;2023-06-22T12:14:17;5.30;;;2.80;;
79369;SDS011;68835;53.096;17.932;2023-06-22T12:16:44;3.80;;;2.60;;
79369;SDS011;68835;53.096;17.932;2023-06-22T12:19:12;3.60;;;2.00;;
79369;SDS011;68835;53.096;17.932;2023-06-22T12:21:39;3.20;;;2.10;;
79369;SDS011;68835;53.096;17.932;2023-06-22T12:24:07;4.00;;;2.40;;
79369;SDS011;68835;53.096;17.932;2023-06-22T12:26:34;3.50;;;2.30;;
79369;SDS011;68835;53.096;17.932;2023-06-22T12:29:01;3.90;;;2.30;;
79369;SDS011;68835;53.096;17.932;2023-06-22T12:31:29;3.40;;;2.20;;
79369;SDS011;68835;53.096;17.932;2023-06-22T12:33:56;3.50;;;2.20;;
79369;SDS011;68835;53.096;17.932;2023-06-22T12:36:23;8.30;;;3.00;;
79369;SDS011;68835;53.096;17.932;2023-06-22T12:38:51;3.00;;;2.40;;
79369;SDS011;68835;53.096;17.932;2023-06-22T12:41:18;4.20;;;2.70;;
79369;SDS011;68835;53.096;17.932;2023-06-22T12:43:46;4.10;;;2.90;;
79369;SDS011;68835;53.096;17.932;2023-06-22T12:46:13;3.70;;;2.50;;
79369;SDS011;68835;53.096;17.932;2023-06-22T12:48:40;4.20;;;2.90;;
79369;SDS011;68835;53.096;17.932;2023-06-22T12:51:09;3.40;;;2.30;;
79369;SDS011;68835;53.096;17.932;2023-06-22T12:53:36;5.30;;;2.30;;
79369;SDS011;68835;53.096;17.932;2023-06-22T12:56:03;6.30;;;2.60;;
79369;SDS011;68835;53.096;17.932;2023-06-22T12:58:31;4.90;;;2.80;;
79369;SDS011;68835;53.096;17.932;2023-06-22T13:00:58;4.20;;;2.00;;
79369;SDS011;68835;53.096;17.932;2023-06-22T13:03:25;4.20;;;2.90;;
79369;SDS011;68835;53.096;17.932;2023-06-22T13:05:54;3.90;;;2.80;;
79369;SDS011;68835;53.096;17.932;2023-06-22T13:08:21;3.70;;;2.40;;
79369;SDS011;68835;53.096;17.932;2023-06-22T13:10:48;4.20;;;2.80;;
79369;SDS011;68835;53.096;17.932;2023-06-22T13:13:16;3.40;;;2.10;;
79369;SDS011;68835;53.096;17.932;2023-06-22T13:15:43;5.60;;;3.00;;
79369;SDS011;68835;53.096;17.932;2023-06-22T13:18:10;4.20;;;2.20;;
79369;SDS011;68835;53.096;17.932;2023-06-22T13:20:38;5.70;;;2.40;;
79369;SDS011;68835;53.096;17.932;2023-06-22T13:23:05;5.50;;;3.20;;
79369;SDS011;68835;53.096;17.932;2023-06-22T13:25:32;5.80;;;2.90;;
79369;SDS011;68835;53.096;17.932;2023-06-22T13:27:59;4.50;;;2.70;;
79369;SDS011;68835;53.096;17.932;2023-06-22T13:30:26;2.50;;;2.00;;
79369;SDS011;68835;53.096;17.932;2023-06-22T13:32:54;4.00;;;2.70;;
79369;SDS011;68835;53.096;17.932;2023-06-22T13:35:21;4.20;;;3.00;;
79369;SDS011;68835;53.096;17.932;2023-06-22T13:37:48;4.10;;;2.90;;
79369;SDS011;68835;53.096;17.932;2023-06-22T13:40:15;3.30;;;2.40;;
79369;SDS011;68835;53.096;17.932;2023-06-22T13:42:42;3.60;;;2.30;;
79369;SDS011;68835;53.096;17.932;2023-06-22T13:45:10;3.40;;;2.50;;
79369;SDS011;68835;53.096;17.932;2023-06-22T13:47:37;4.80;;;2.50;;
79369;SDS011;68835;53.096;17.932;2023-06-22T13:50:04;5.80;;;2.80;;
79369;SDS011;68835;53.096;17.932;2023-06-22T13:52:32;4.10;;;2.90;;
79369;SDS011;68835;53.096;17.932;2023-06-22T13:54:59;4.80;;;2.80;;
79369;SDS011;68835;53.096;17.932;2023-06-22T13:57:26;3.20;;;2.60;;
79369;SDS011;68835;53.096;17.932;2023-06-22T13:59:54;3.10;;;1.90;;
79369;SDS011;68835;53.096;17.932;2023-06-22T14:02:21;4.50;;;2.90;;
79369;SDS011;68835;53.096;17.932;2023-06-22T14:04:48;4.30;;;2.80;;
79369;SDS011;68835;53.096;17.932;2023-06-22T14:07:15;2.80;;;2.10;;
79369;SDS011;68835;53.096;17.932;2023-06-22T14:09:42;4.50;;;2.80;;
79369;SDS011;68835;53.096;17.932;2023-06-22T14:12:09;3.80;;;2.50;;
79369;SDS011;68835;53.096;17.932;2023-06-22T14:14:37;3.20;;;2.30;;
79369;SDS011;68835;53.096;17.932;2023-06-22T14:17:05;4.20;;;2.60;;
79369;SDS011;68835;53.096;17.932;2023-06-22T14:19:32;5.00;;;3.00;;
79369;SDS011;68835;53.096;17.932;2023-06-22T14:21:59;5.00;;;2.80;;
79369;SDS011;68835;53.096;17.932;2023-06-22T14:24:27;5.40;;;3.20;;
79369;SDS011;68835;53.096;17.932;2023-06-22T14:26:54;4.80;;;2.90;;
79369;SDS011;68835;53.096;17.932;2023-06-22T14:29:22;4.70;;;2.40;;
79369;SDS011;68835;53.096;17.932;2023-06-22T14:31:49;3.90;;;3.00;;
79369;SDS011;68835;53.096;17.932;2023-06-22T14:34:16;4.40;;;2.60;;
79369;SDS011;68835;53.096;17.932;2023-06-22T14:36:43;3.90;;;2.60;;
79369;SDS011;68835;53.096;17.932;2023-06-22T14:39:11;4.50;;;2.90;;
79369;SDS011;68835;53.096;17.932;2023-06-22T14:41:38;4.00;;;3.20;;
79369;SDS011;68835;53.096;17.932;2023-06-22T14:44:05;3.80;;;2.80;;
79369;SDS011;68835;53.096;17.932;2023-06-22T14:46:32;6.40;;;3.00;;
79369;SDS011;68835;53.096;17.932;2023-06-22T14:48:59;4.10;;;2.50;;
79369;SDS011;68835;53.096;17.932;2023-06-22T14:51:27;4.70;;;2.80;;
79369;SDS011;68835;53.096;17.932;2023-06-22T14:53:54;3.80;;;2.50;;
79369;SDS011;68835;53.096;17.932;2023-06-22T14:56:21;5.30;;;3.40;;
79369;SDS011;68835;53.096;17.932;2023-06-22T14:58:48;3.70;;;2.70;;
79369;SDS011;68835;53.096;17.932;2023-06-22T15:01:18;4.10;;;3.10;;
79369;SDS011;68835;53.096;17.932;2023-06-22T15:03:46;3.90;;;3.10;;
79369;SDS011;68835;53.096;17.932;2023-06-22T15:06:13;5.80;;;2.80;;
79369;SDS011;68835;53.096;17.932;2023-06-22T15:08:41;3.90;;;2.80;;
79369;SDS011;68835;53.096;17.932;2023-06-22T15:11:08;4.70;;;3.30;;
79369;SDS011;68835;53.096;17.932;2023-06-22T15:13:38;6.90;;;2.90;;